Time;durP1;ratioP1;P1;durP2;ratioP2;P2;SDS_P1;SDS_P2;PMS_P1;PMS_P2;Temp;Humidity;BMP_temperature;BMP_pressure;BME280_temperature;BME280_humidity;BME280_pressure;Samples;Min_cycle;Max_cycle;Signal;HPM_P1;HPM_P2
2024/03/12 00:00:43;;;;;;;9.77;6.10;;;4.90;99.90;;;;;;5096203;28;20039;-77
2024/03/12 00:03:42;;;;;;;11.80;7.03;;;4.90;99.90;;;;;;5083524;28;20059;-83
2024/03/12 00:06:31;;;;;;;8.55;6.32;;;4.80;1.00;;;;;;5091062;28;20051;-80
2024/03/12 00:09:19;;;;;;;8.68;5.75;;;4.80;1.00;;;;;;5095742;28;20113;-80
2024/03/12 00:12:07;;;;;;;11.43;6.13;;;4.70;1.00;;;;;;5088704;28;20305;-80
2024/03/12 00:14:55;;;;;;;8.15;5.93;;;4.70;1.00;;;;;;5081122;28;20119;-80
2024/03/12 00:17:43;;;;;;;8.50;6.07;;;4.60;1.00;;;;;;5081637;28;20133;-81
2024/03/12 00:20:33;;;;;;;10.13;6.10;;;4.50;1.00;;;;;;5082026;28;20048;-79
2024/03/12 00:23:25;;;;;;;8.43;6.00;;;4.50;1.00;;;;;;5087185;28;20055;-80
2024/03/12 00:26:17;;;;;;;9.82;6.55;;;4.40;1.00;;;;;;5094289;27;20044;-78
2024/03/12 00:29:05;;;;;;;8.00;6.43;;;4.30;47.70;;;;;;5095762;28;20133;-82
2024/03/12 00:31:55;;;;;;;9.40;6.70;;;4.30;99.90;;;;;;5102643;27;20147;-80
2024/03/12 00:34:45;;;;;;;6.90;5.57;;;4.30;99.90;;;;;;5082031;28;20177;-80
2024/03/12 00:37:33;;;;;;;10.32;6.03;;;4.30;99.90;;;;;;5094130;27;20082;-80
2024/03/12 00:40:22;;;;;;;9.13;6.15;;;4.20;99.90;;;;;;5091710;28;20040;-80
2024/03/12 00:43:11;;;;;;;10.38;6.55;;;4.20;99.90;;;;;;5083249;28;20043;-80
2024/03/12 00:46:10;;;;;;;10.32;6.68;;;4.20;99.90;;;;;;5095513;27;20044;-79
2024/03/12 00:48:59;;;;;;;12.70;6.32;;;4.10;99.90;;;;;;5089270;28;20048;-77
2024/03/12 00:51:48;;;;;;;7.93;6.10;;;4.10;99.90;;;;;;5104113;27;20048;-80
2024/03/12 00:54:36;;;;;;;9.50;6.65;;;4.10;1.00;;;;;;5092468;28;20482;-79
2024/03/12 00:57:27;;;;;;;10.50;6.47;;;4.00;1.00;;;;;;5092051;28;20410;-81
2024/03/12 01:00:25;;;;;;;9.02;6.05;;;3.90;1.00;;;;;;5101619;28;20043;-78
2024/03/12 01:03:14;;;;;;;10.23;6.60;;;3.80;1.00;;;;;;5099021;28;20044;-78
2024/03/12 01:06:01;;;;;;;9.27;5.72;;;3.80;23.10;;;;;;5104388;28;20043;-81
2024/03/12 01:08:49;;;;;;;8.38;5.95;;;3.90;99.90;;;;;;5091026;28;20054;-79
2024/03/12 01:11:40;;;;;;;11.20;5.82;;;4.00;99.90;;;;;;5097377;28;20648;-80
2024/03/12 01:14:27;;;;;;;7.07;4.90;;;4.00;99.90;;;;;;5099089;28;20052;-81
2024/03/12 01:17:17;;;;;;;10.52;5.28;;;4.00;99.90;;;;;;5102446;28;20055;-79
2024/03/12 01:20:09;;;;;;;7.50;5.45;;;4.00;99.90;;;;;;5101931;27;20514;-80
2024/03/12 01:22:57;;;;;;;9.90;5.07;;;4.10;99.90;;;;;;5091714;28;20543;-79
2024/03/12 01:25:46;;;;;;;7.28;5.30;;;4.10;99.90;;;;;;5103795;27;20043;-80
2024/03/12 01:28:35;;;;;;;6.65;5.18;;;4.00;99.90;;;;;;5098174;28;20106;-81
2024/03/12 01:31:24;;;;;;;11.57;5.30;;;4.00;99.90;;;;;;5101395;28;20139;-80
2024/03/12 01:34:15;;;;;;;9.65;5.45;;;4.00;99.90;;;;;;5094957;27;20044;-80
2024/03/12 01:37:05;;;;;;;;;;;4.00;99.90;;;;;;5086992;28;20051;-79
2024/03/12 01:39:52;;;;;;;9.25;5.22;;;4.00;99.90;;;;;;5089449;28;19935;-79
2024/03/12 01:42:41;;;;;;;6.97;4.90;;;4.10;99.90;;;;;;5096219;27;20052;-80
2024/03/12 01:45:32;;;;;;;7.03;5.65;;;4.10;99.90;;;;;;5102815;28;20058;-81
2024/03/12 01:48:22;;;;;;;8.68;5.20;;;4.10;99.90;;;;;;5087762;28;20040;-80
2024/03/12 01:51:10;;;;;;;7.40;5.10;;;4.10;99.90;;;;;;5099136;27;20183;-80
2024/03/12 01:53:58;;;;;;;6.10;4.78;;;4.10;99.90;;;;;;5114163;27;20039;-80
2024/03/12 01:56:47;;;;;;;7.45;5.35;;;4.00;99.90;;;;;;5085899;28;20050;-79
2024/03/12 01:59:36;;;;;;;6.50;4.95;;;4.00;99.90;;;;;;5116829;27;20042;-79
2024/03/12 02:02:25;;;;;;;8.88;4.80;;;4.00;99.90;;;;;;5123915;27;20206;-80
2024/03/12 02:05:14;;;;;;;7.20;5.57;;;4.00;99.90;;;;;;5110987;27;20060;-79
2024/03/12 02:08:01;;;;;;;7.60;5.57;;;4.00;99.90;;;;;;5101774;28;20024;-81
2024/03/12 02:10:49;;;;;;;8.68;6.07;;;4.00;99.90;;;;;;5106053;27;20048;-79
2024/03/12 02:13:37;;;;;;;7.65;5.05;;;3.90;99.90;;;;;;5083574;28;20113;-80
2024/03/12 02:16:26;;;;;;;7.35;5.60;;;3.90;99.90;;;;;;5087115;27;20161;-81
2024/03/12 02:19:17;;;;;;;6.55;5.38;;;3.90;99.90;;;;;;5103477;27;20054;-79
2024/03/12 02:22:05;;;;;;;8.27;5.72;;;3.90;99.90;;;;;;5101058;27;20374;-80
2024/03/12 02:24:52;;;;;;;11.65;5.85;;;3.90;99.90;;;;;;5102429;27;20385;-81
2024/03/12 02:27:40;;;;;;;6.22;4.93;;;3.90;99.90;;;;;;5110848;28;20658;-80
2024/03/12 02:30:29;;;;;;;7.50;5.38;;;3.90;99.90;;;;;;5095026;27;20051;-79
2024/03/12 02:33:20;;;;;;;6.72;5.32;;;4.00;99.90;;;;;;5105366;27;21430;-79
2024/03/12 02:36:09;;;;;;;6.10;4.43;;;3.90;99.90;;;;;;5084838;28;20121;-80
2024/03/12 02:38:57;;;;;;;5.05;4.55;;;3.90;99.90;;;;;;5101445;28;20086;-80
2024/03/12 02:41:45;;;;;;;7.95;5.00;;;3.90;99.90;;;;;;5088539;28;20527;-80
2024/03/12 02:44:33;;;;;;;5.63;4.78;;;3.90;99.90;;;;;;5102328;27;20047;-79
2024/03/12 02:47:20;;;;;;;9.48;5.20;;;3.90;99.90;;;;;;5078144;27;20036;-79
2024/03/12 02:50:08;;;;;;;11.20;5.03;;;3.80;99.90;;;;;;5093522;28;20040;-80
2024/03/12 02:52:56;;;;;;;6.55;5.15;;;3.80;99.90;;;;;;5099148;27;20055;-81
2024/03/12 02:55:44;;;;;;;6.85;5.28;;;3.80;99.90;;;;;;5088541;28;20054;-81
2024/03/12 02:58:32;;;;;;;8.63;5.35;;;3.80;99.90;;;;;;5083436;28;20042;-81
2024/03/12 03:01:21;;;;;;;7.13;5.05;;;3.80;99.90;;;;;;5071074;28;20123;-79
2024/03/12 03:04:09;;;;;;;6.75;5.10;;;3.70;99.90;;;;;;5089833;28;20509;-81
2024/03/12 03:07:00;;;;;;;9.88;5.88;;;3.80;99.90;;;;;;5093719;28;20052;-80
2024/03/12 03:09:47;;;;;;;7.15;5.00;;;3.80;99.90;;;;;;5091923;27;20051;-77
2024/03/12 03:12:35;;;;;;;8.10;5.15;;;3.90;99.90;;;;;;5085572;28;20106;-80
2024/03/12 03:15:23;;;;;;;7.30;5.05;;;3.90;99.90;;;;;;5113756;27;20059;-81
2024/03/12 03:18:12;;;;;;;7.47;4.63;;;4.00;99.90;;;;;;5103313;28;20093;-81
2024/03/12 03:21:01;;;;;;;6.97;4.60;;;4.10;99.90;;;;;;5101411;28;20051;-79
2024/03/12 03:23:48;;;;;;;4.55;4.05;;;4.20;30.40;;;;;;5100973;28;20051;-81
2024/03/12 03:26:37;;;;;;;6.65;4.10;;;4.20;1.00;;;;;;5098262;28;20065;-81
2024/03/12 03:29:31;;;;;;;6.43;4.60;;;4.20;1.00;;;;;;5119542;28;20031;-79
2024/03/12 03:32:20;;;;;;;6.13;4.20;;;4.30;1.00;;;;;;5102909;28;20089;-81
2024/03/12 03:35:08;;;;;;;6.78;4.13;;;4.30;1.00;;;;;;5104890;28;20048;-84
2024/03/12 03:37:59;;;;;;;11.27;5.13;;;4.40;99.90;;;;;;5100851;27;20419;-80
2024/03/12 03:40:46;;;;;;;6.07;4.32;;;4.40;99.90;;;;;;5104574;27;20059;-78
2024/03/12 03:43:34;;;;;;;5.38;4.07;;;4.40;99.90;;;;;;5101557;28;20058;-81
2024/03/12 03:46:23;;;;;;;7.65;4.25;;;4.50;99.90;;;;;;5096185;28;20070;-80
2024/03/12 03:49:10;;;;;;;5.68;4.05;;;4.50;99.90;;;;;;5105471;27;20171;-78
2024/03/12 03:51:58;;;;;;;8.48;4.00;;;4.50;99.90;;;;;;5091371;28;20460;-80
2024/03/12 03:54:45;;;;;;;5.40;3.90;;;4.60;99.90;;;;;;5083475;28;20135;-78
2024/03/12 03:57:36;;;;;;;4.00;3.30;;;4.60;99.90;;;;;;5110543;28;20042;-81
2024/03/12 04:00:28;;;;;;;4.80;3.85;;;4.60;40.70;;;;;;5087587;28;20152;-80
2024/03/12 04:03:18;;;;;;;5.20;3.78;;;4.60;1.00;;;;;;5106931;28;20372;-79
2024/03/12 04:06:06;;;;;;;7.18;3.80;;;4.60;1.00;;;;;;5083365;28;20501;-78
2024/03/12 04:08:54;;;;;;;5.75;3.78;;;4.70;1.00;;;;;;5084438;28;20602;-78
2024/03/12 04:11:43;;;;;;;4.05;3.53;;;4.70;1.00;;;;;;5097445;28;20043;-80
2024/03/12 04:14:34;;;;;;;;;;;4.70;99.90;;;;;;5090027;28;20169;-80
2024/03/12 04:17:22;;;;;;;6.18;3.92;;;4.70;99.90;;;;;;5085895;28;20069;-81
2024/03/12 04:20:11;;;;;;;3.85;3.45;;;4.60;99.90;;;;;;5082462;28;20052;-81
2024/03/12 04:22:59;;;;;;;4.75;3.67;;;4.60;99.90;;;;;;5107170;27;20214;-80
2024/03/12 04:25:46;;;;;;;6.00;3.72;;;4.60;99.90;;;;;;5091907;28;20046;-81
2024/03/12 04:28:38;;;;;;;6.13;3.65;;;4.50;99.90;;;;;;5103013;27;20050;-81
2024/03/12 04:31:27;;;;;;;;;;;4.50;99.90;;;;;;5088052;28;20059;-81
2024/03/12 04:34:14;;;;;;;6.22;3.65;;;4.50;99.90;;;;;;5093851;28;19934;-78
2024/03/12 04:37:03;;;;;;;4.55;3.90;;;4.50;99.90;;;;;;5099047;28;20043;-79
2024/03/12 04:39:52;;;;;;;4.85;3.63;;;4.50;99.90;;;;;;5092718;28;20053;-80
2024/03/12 04:42:43;;;;;;;4.82;3.50;;;4.50;99.90;;;;;;5096803;28;20050;-81
2024/03/12 04:45:31;;;;;;;5.85;4.10;;;4.60;99.90;;;;;;5087916;28;20072;-80
2024/03/12 04:48:21;;;;;;;6.85;3.83;;;4.60;99.90;;;;;;5107680;27;20143;-79
2024/03/12 04:51:08;;;;;;;7.50;3.75;;;4.60;99.90;;;;;;5093008;28;20094;-79
2024/03/12 04:53:58;;;;;;;6.45;3.70;;;4.60;99.90;;;;;;5089861;28;20043;-80
2024/03/12 04:56:48;;;;;;;8.60;3.80;;;4.70;99.90;;;;;;5079529;28;20498;-81
2024/03/12 04:59:35;;;;;;;6.70;4.10;;;4.70;99.90;;;;;;5090668;28;20455;-81
2024/03/12 05:02:24;;;;;;;12.57;3.90;;;4.70;99.90;;;;;;5100394;28;20040;-80
2024/03/12 05:05:23;;;;;;;5.28;4.13;;;4.80;99.90;;;;;;5089644;28;20146;-80
2024/03/12 05:08:10;;;;;;;10.95;3.92;;;4.80;99.90;;;;;;5081089;28;20517;-81
2024/03/12 05:10:58;;;;;;;5.68;3.90;;;4.80;95.20;;;;;;5077135;28;20051;-79
2024/03/12 05:13:48;;;;;;;8.15;3.80;;;4.80;90.10;;;;;;5093795;28;20051;-80
2024/03/12 05:16:36;;;;;;;7.65;3.95;;;4.80;71.40;;;;;;5098592;28;20043;-79
2024/03/12 05:19:24;;;;;;;7.95;4.68;;;4.80;66.80;;;;;;5096412;28;20511;-80
2024/03/12 05:22:11;;;;;;;5.75;3.80;;;4.80;70.30;;;;;;5093758;28;20139;-80
2024/03/12 05:25:01;;;;;;;6.63;4.32;;;4.80;85.10;;;;;;5108484;28;20355;-78
2024/03/12 05:27:50;;;;;;;5.93;4.40;;;4.80;93.00;;;;;;5096306;28;20047;-80
2024/03/12 05:30:40;;;;;;;7.65;4.50;;;4.80;99.90;;;;;;5103451;28;20121;-78
2024/03/12 05:33:38;;;;;;;6.60;4.95;;;4.80;99.90;;;;;;5105971;27;20055;-81
2024/03/12 05:36:40;;;;;;;6.10;4.25;;;4.80;99.90;;;;;;5092840;28;20046;-79
2024/03/12 05:39:47;;;;;;;6.30;3.47;;;4.80;99.90;;;;;;5108627;28;20455;-80
2024/03/12 05:48:52;;;;;;;8.35;4.47;;;4.80;99.90;;;;;;5099765;28;20039;-78
2024/03/12 05:51:40;;;;;;;7.10;4.38;;;4.80;99.90;;;;;;5089210;28;20043;-77
2024/03/12 05:54:28;;;;;;;7.55;4.45;;;4.80;99.90;;;;;;5111489;28;20095;-79
2024/03/12 05:57:15;;;;;;;9.75;4.90;;;4.80;99.90;;;;;;5108522;28;20050;-80
2024/03/12 06:00:04;;;;;;;6.97;5.00;;;4.80;99.90;;;;;;5101952;28;20450;-80
2024/03/12 06:02:51;;;;;;;7.13;4.80;;;4.90;99.90;;;;;;5092736;28;20048;-79
2024/03/12 06:05:38;;;;;;;7.45;5.55;;;4.90;99.90;;;;;;5104711;28;20032;-80
2024/03/12 06:08:26;;;;;;;6.22;4.88;;;4.90;99.90;;;;;;5097947;28;20032;-80
2024/03/12 06:11:14;;;;;;;9.02;5.32;;;4.90;99.90;;;;;;5103292;28;20504;-81
2024/03/12 06:14:06;;;;;;;10.93;4.70;;;4.90;99.90;;;;;;5102262;27;20051;-82
2024/03/12 06:16:54;;;;;;;5.17;3.93;;;4.90;99.90;;;;;;5093901;27;20149;-81
2024/03/12 06:19:41;;;;;;;8.23;5.13;;;4.90;99.90;;;;;;5104654;27;20044;-80
2024/03/12 06:22:29;;;;;;;7.95;4.43;;;5.00;99.90;;;;;;5089871;28;20044;-82
2024/03/12 06:25:16;;;;;;;8.93;4.28;;;5.00;99.90;;;;;;5088006;28;20044;-79
2024/03/12 06:28:05;;;;;;;5.30;4.22;;;5.00;99.90;;;;;;5094973;28;20051;-79
2024/03/12 06:30:53;;;;;;;6.38;4.32;;;5.00;99.90;;;;;;5101466;27;20043;-78
2024/03/12 06:33:43;;;;;;;8.70;4.68;;;5.10;99.90;;;;;;5098626;28;20097;-77
2024/03/12 06:36:32;;;;;;;7.30;4.63;;;5.10;99.90;;;;;;5095674;27;20511;-79
2024/03/12 06:39:20;;;;;;;5.82;4.47;;;5.10;99.90;;;;;;5123143;27;20051;-79
2024/03/12 06:42:12;;;;;;;9.68;5.18;;;5.10;99.90;;;;;;5117925;28;20052;-76
2024/03/12 06:45:02;;;;;;;8.93;5.57;;;5.20;99.90;;;;;;5107111;28;20050;-76
2024/03/12 06:47:51;;;;;;;7.78;5.22;;;5.20;99.90;;;;;;5109301;27;20186;-77
2024/03/12 06:50:39;;;;;;;6.88;4.43;;;5.30;99.90;;;;;;5109671;27;20031;-78
2024/03/12 06:53:36;;;;;;;7.85;4.45;;;5.40;99.90;;;;;;5122496;27;20064;-77
2024/03/12 06:56:31;;;;;;;7.78;4.53;;;5.50;99.90;;;;;;5126299;27;20096;-77
2024/03/12 06:59:18;;;;;;;5.95;4.43;;;5.50;99.90;;;;;;5111644;27;20090;-76
2024/03/12 07:02:05;;;;;;;4.43;3.50;;;5.70;99.90;;;;;;5116407;27;20139;-80
2024/03/12 07:04:55;;;;;;;6.47;4.18;;;5.70;99.90;;;;;;5101654;27;20044;-79
2024/03/12 07:07:46;;;;;;;16.25;7.60;;;5.80;99.90;;;;;;5107668;27;20062;-77
2024/03/12 07:10:40;;;;;;;10.50;4.13;;;5.90;99.90;;;;;;5102604;27;20050;-79
2024/03/12 07:13:49;;;;;;;10.45;5.45;;;6.00;99.90;;;;;;5070382;28;20058;-80
2024/03/12 07:16:41;;;;;;;5.18;3.88;;;6.00;99.90;;;;;;5098993;27;20051;-76
2024/03/12 07:19:28;;;;;;;7.05;4.10;;;6.10;99.90;;;;;;5096717;28;20655;-76
2024/03/12 07:22:24;;;;;;;6.72;4.65;;;6.10;99.90;;;;;;5103353;27;20051;-77
2024/03/12 07:25:13;;;;;;;6.40;4.32;;;6.10;99.90;;;;;;5109067;27;20044;-77
2024/03/12 07:28:05;;;;;;;8.70;4.22;;;6.20;99.90;;;;;;5114122;27;20040;-77
2024/03/12 07:30:54;;;;;;;10.75;4.60;;;6.30;99.90;;;;;;5095947;28;20451;-80
2024/03/12 07:33:45;;;;;;;7.90;5.13;;;6.40;99.90;;;;;;5104617;28;20047;-80
2024/03/12 07:36:34;;;;;;;7.07;4.72;;;6.40;99.90;;;;;;5110607;27;20032;-79
2024/03/12 07:39:25;;;;;;;8.55;4.47;;;6.40;99.90;;;;;;5115998;27;20123;-79
2024/03/12 07:42:18;;;;;;;6.40;4.13;;;6.30;99.90;;;;;;5106477;27;20048;-77
2024/03/12 07:45:09;;;;;;;4.43;3.90;;;6.20;94.80;;;;;;5103798;27;20538;-82
2024/03/12 07:47:56;;;;;;;4.72;3.75;;;6.00;91.50;;;;;;5088078;28;20496;-78
2024/03/12 07:50:44;;;;;;;8.13;4.60;;;6.00;98.00;;;;;;5103334;27;20688;-79
2024/03/12 07:53:33;;;;;;;6.20;3.85;;;5.90;99.90;;;;;;5103728;27;20114;-79
2024/03/12 07:56:24;;;;;;;10.65;4.70;;;5.90;99.90;;;;;;5091446;27;20153;-78
2024/03/12 07:59:13;;;;;;;4.33;3.53;;;6.00;99.90;;;;;;5082576;27;20039;-78
2024/03/12 08:02:30;;;;;;;7.05;4.40;;;6.00;99.90;;;;;;5099504;27;20051;-77
2024/03/12 08:05:23;;;;;;;11.90;6.10;;;6.20;99.90;;;;;;5087904;27;20043;-78
2024/03/12 08:08:12;;;;;;;4.78;4.00;;;6.20;99.90;;;;;;5091765;27;20040;-78
2024/03/12 08:11:13;;;;;;;7.53;4.60;;;6.10;99.90;;;;;;5101777;27;20032;-77
2024/03/12 08:14:34;;;;;;;9.27;4.40;;;6.00;99.90;;;;;;5082832;27;20056;-78
2024/03/12 08:17:22;;;;;;;4.90;3.70;;;5.90;99.90;;;;;;5083861;27;20134;-78
2024/03/12 08:20:22;;;;;;;5.38;3.80;;;5.90;99.90;;;;;;5100538;27;20063;-79
2024/03/12 08:23:14;;;;;;;5.75;4.10;;;5.90;99.90;;;;;;5099997;27;20055;-80
2024/03/12 08:26:01;;;;;;;5.53;3.65;;;5.90;99.90;;;;;;5090490;27;20040;-79
2024/03/12 08:28:51;;;;;;;7.20;3.70;;;5.90;99.90;;;;;;5099073;27;20035;-78
2024/03/12 08:31:39;;;;;;;7.57;4.15;;;5.90;99.90;;;;;;5093031;28;20047;-79
2024/03/12 08:34:37;;;;;;;8.85;4.43;;;5.90;99.90;;;;;;5096212;27;20047;-81
2024/03/12 08:37:27;;;;;;;6.15;4.22;;;5.90;99.90;;;;;;5093700;27;20067;-80
2024/03/12 08:40:25;;;;;;;5.03;4.15;;;6.00;1.00;;;;;;5100426;27;20411;-81
2024/03/12 08:43:16;;;;;;;4.18;3.08;;;6.20;1.00;;;;;;5094251;27;20555;-78
2024/03/12 08:46:06;;;;;;;6.00;3.83;;;6.40;1.00;;;;;;5077877;27;20236;-77
2024/03/12 08:48:54;;;;;;;12.13;7.10;;;6.40;99.90;;;;;;5103760;27;21304;-79
2024/03/12 08:51:41;;;;;;;4.45;3.42;;;6.40;99.90;;;;;;5092239;27;20131;-79
2024/03/12 08:54:29;;;;;;;4.00;2.75;;;6.40;99.90;;;;;;5099913;27;20119;-79
2024/03/12 08:57:20;;;;;;;5.13;3.00;;;6.40;99.90;;;;;;5088566;28;20113;-78
2024/03/12 09:00:11;;;;;;;3.75;3.10;;;6.40;99.90;;;;;;5083669;28;20050;-78
2024/03/12 09:03:05;;;;;;;6.60;3.03;;;6.50;99.90;;;;;;5079722;28;20078;-79
2024/03/12 09:05:55;;;;;;;4.63;2.75;;;6.50;99.90;;;;;;5086839;28;20036;-79
2024/03/12 09:08:44;;;;;;;4.75;2.70;;;6.60;99.90;;;;;;5076978;28;20048;-80
2024/03/12 09:11:33;;;;;;;5.90;2.60;;;6.60;99.90;;;;;;5081196;28;20059;-77
2024/03/12 09:14:24;;;;;;;5.93;2.30;;;6.70;99.90;;;;;;5095056;28;20046;-79
2024/03/12 09:17:12;;;;;;;4.00;2.30;;;6.90;99.90;;;;;;5081359;28;20059;-78
2024/03/12 09:20:00;;;;;;;4.18;2.28;;;7.00;70.90;;;;;;5072648;28;20504;-78
2024/03/12 09:22:49;;;;;;;3.25;2.38;;;7.20;1.00;;;;;;5084087;28;20055;-79
2024/03/12 09:25:37;;;;;;;8.88;2.60;;;7.30;1.00;;;;;;5071688;28;20531;-80
2024/03/12 09:28:36;;;;;;;3.90;2.75;;;7.20;1.00;;;;;;5098727;28;20148;-77
2024/03/12 09:31:24;;;;;;;6.30;2.47;;;7.20;1.00;;;;;;5101221;28;20043;-78
2024/03/12 09:34:12;;;;;;;3.60;2.55;;;7.30;1.00;;;;;;5086394;28;20383;-78
2024/03/12 09:37:00;;;;;;;6.75;3.00;;;7.20;1.00;;;;;;5076837;28;20752;-79
2024/03/12 09:39:52;;;;;;;;;;;7.20;1.00;;;;;;5093788;27;20040;-80
2024/03/12 09:42:47;;;;;;;3.70;2.97;;;7.10;1.00;;;;;;5110973;27;19923;-78
2024/03/12 09:45:39;;;;;;;4.60;3.42;;;7.00;1.00;;;;;;5093552;27;20043;-80
2024/03/12 09:48:29;;;;;;;4.22;3.45;;;7.00;1.00;;;;;;5108170;27;20051;-80
2024/03/12 09:51:17;;;;;;;6.40;3.33;;;7.00;1.00;;;;;;5089624;27;20051;-79
2024/03/12 09:54:05;;;;;;;4.72;3.42;;;7.00;1.00;;;;;;5099336;27;20035;-79
2024/03/12 09:56:56;;;;;;;8.27;3.45;;;7.20;1.00;;;;;;5098592;27;20044;-78
2024/03/12 09:59:43;;;;;;;6.53;3.53;;;7.20;1.00;;;;;;5097381;27;20051;-77
2024/03/12 10:02:31;;;;;;;5.32;3.28;;;7.10;1.00;;;;;;5100415;27;20044;-78
2024/03/12 10:05:22;;;;;;;5.43;3.60;;;7.20;1.00;;;;;;5101289;27;20052;-79
2024/03/12 10:08:17;;;;;;;9.82;4.57;;;7.20;99.90;;;;;;5098382;27;20542;-80
2024/03/12 10:11:07;;;;;;;10.63;6.38;;;7.30;99.90;;;;;;5099575;27;20098;-79
2024/03/12 10:14:11;;;;;;;;;;;;;;;;;;;;;
2024/03/12 10:17:16;;;;;;;7.32;3.92;;;7.70;99.90;;;;;;5100181;27;20044;-78
2024/03/12 10:20:15;;;;;;;4.90;3.30;;;7.70;99.90;;;;;;5091395;28;20044;-78
2024/03/12 10:23:09;;;;;;;5.18;3.13;;;7.70;99.90;;;;;;5095065;27;20855;-78
2024/03/12 10:26:11;;;;;;;5.53;3.97;;;7.80;99.90;;;;;;5098384;27;20040;-79
2024/03/12 10:29:09;;;;;;;5.85;3.70;;;7.70;99.90;;;;;;5105629;27;20044;-77
2024/03/12 10:31:56;;;;;;;4.53;3.20;;;7.70;99.90;;;;;;5079431;27;20773;-79
2024/03/12 10:34:44;;;;;;;4.85;3.08;;;7.60;99.90;;;;;;5099833;27;20796;-78
2024/03/12 10:37:34;;;;;;;4.38;3.00;;;7.60;99.90;;;;;;5096748;27;20054;-79
2024/03/12 10:40:26;;;;;;;3.65;2.75;;;7.60;99.90;;;;;;5101119;27;20126;-77
2024/03/12 10:43:20;;;;;;;4.43;2.60;;;7.50;99.90;;;;;;5093957;28;20688;-77
2024/03/12 10:46:10;;;;;;;3.60;2.70;;;7.40;99.90;;;;;;5083881;28;20115;-79
2024/03/12 10:49:00;;;;;;;4.32;2.72;;;7.30;99.90;;;;;;5099097;27;20028;-78
2024/03/12 10:51:49;;;;;;;4.70;3.05;;;7.40;99.90;;;;;;5095612;27;20047;-78
2024/03/12 10:54:40;;;;;;;4.60;3.00;;;7.40;99.90;;;;;;5105855;27;20190;-78
2024/03/12 10:57:37;;;;;;;3.67;2.85;;;7.50;99.90;;;;;;5103680;27;20132;-78
2024/03/12 11:00:28;;;;;;;3.85;2.72;;;7.60;99.90;;;;;;5102325;28;20031;-76
2024/03/12 11:03:18;;;;;;;3.50;2.30;;;7.70;99.90;;;;;;5115684;28;20046;-76
2024/03/12 11:06:07;;;;;;;3.22;2.58;;;7.70;99.90;;;;;;5102867;27;20047;-79
2024/03/12 11:08:56;;;;;;;5.35;3.20;;;7.80;99.90;;;;;;5102623;27;20165;-79
2024/03/12 11:11:46;;;;;;;2.65;2.10;;;7.70;99.90;;;;;;5100134;27;20621;-79
2024/03/12 11:14:34;;;;;;;2.17;1.98;;;7.80;99.90;;;;;;5106750;28;20028;-79
2024/03/12 11:17:27;;;;;;;3.28;2.00;;;7.90;70.40;;;;;;5103915;28;20032;-79
2024/03/12 11:20:22;;;;;;;2.10;1.83;;;8.00;47.30;;;;;;5108431;27;20047;-78
2024/03/12 11:23:15;;;;;;;2.85;2.20;;;8.10;17.20;;;;;;5111630;28;20129;-78
2024/03/12 11:26:06;;;;;;;2.53;2.05;;;8.00;1.00;;;;;;5105875;28;20045;-78
2024/03/12 11:28:59;;;;;;;2.92;2.50;;;7.80;1.00;;;;;;5095465;27;20039;-80
2024/03/12 11:31:51;;;;;;;2.97;2.10;;;7.80;1.00;;;;;;5092082;28;20207;-80
2024/03/12 11:34:42;;;;;;;3.83;1.90;;;7.80;1.00;;;;;;5088322;28;20048;-80
2024/03/12 11:37:30;;;;;;;2.45;1.88;;;7.90;1.00;;;;;;5094099;28;20048;-80
2024/03/12 11:40:30;;;;;;;2.65;2.30;;;8.00;1.00;;;;;;5103914;28;20428;-79
2024/03/12 11:43:41;;;;;;;4.32;2.10;;;8.00;1.00;;;;;;5077399;27;20483;-81
2024/03/12 11:46:48;;;;;;;3.00;2.03;;;8.00;1.00;;;;;;5094793;27;20486;-80
2024/03/12 11:49:37;;;;;;;5.10;2.35;;;8.00;1.00;;;;;;5087362;27;20043;-80
2024/03/12 11:52:27;;;;;;;3.40;2.10;;;8.10;1.00;;;;;;5095192;28;20036;-81
2024/03/12 11:56:00;;;;;;;2.83;2.03;;;8.10;1.00;;;;;;5085586;27;20042;-79
2024/03/12 11:58:55;;;;;;;3.40;2.10;;;8.00;1.00;;;;;;5095463;27;20044;-78
2024/03/12 12:01:52;;;;;;;3.55;2.03;;;8.10;1.00;;;;;;5099917;27;20412;-78
2024/03/12 12:04:42;;;;;;;3.20;2.25;;;8.00;10.80;;;;;;5094635;28;20613;-81
2024/03/12 12:07:29;;;;;;;2.63;1.92;;;7.80;82.20;;;;;;5100630;27;20036;-80
2024/03/12 12:10:17;;;;;;;6.00;2.70;;;7.70;99.90;;;;;;5096431;27;20136;-80
2024/03/12 12:13:15;;;;;;;2.67;1.90;;;7.50;99.90;;;;;;5094585;27;20032;-80
2024/03/12 12:16:07;;;;;;;2.15;1.95;;;7.30;99.90;;;;;;5089870;27;20119;-81
2024/03/12 12:19:04;;;;;;;1.95;1.60;;;7.20;99.90;;;;;;5086696;28;20515;-80
2024/03/12 12:21:56;;;;;;;4.32;2.33;;;7.00;99.90;;;;;;5090167;28;20562;-81
2024/03/12 12:24:44;;;;;;;2.08;1.50;;;6.80;1.00;;;;;;5101344;28;20155;-75
2024/03/12 12:27:33;;;;;;;5.15;2.80;;;6.80;1.00;;;;;;5106426;27;20468;-81
2024/03/12 12:30:22;;;;;;;11.43;5.32;;;6.70;1.00;;;;;;5099435;27;20181;-80
2024/03/12 12:33:13;;;;;;;12.27;6.35;;;6.60;1.00;;;;;;5084609;28;20047;-80
2024/03/12 12:36:08;;;;;;;16.85;8.60;;;6.60;1.00;;;;;;5079167;28;20039;-79
2024/03/12 12:39:00;;;;;;;13.63;7.57;;;6.60;1.00;;;;;;5084076;28;20102;-81
2024/03/12 12:41:50;;;;;;;12.57;6.57;;;6.60;1.00;;;;;;5098143;27;20048;-79
2024/03/12 12:44:40;;;;;;;9.70;5.78;;;6.70;1.00;;;;;;5108961;27;20130;-77
2024/03/12 12:47:32;;;;;;;9.57;5.75;;;6.70;1.00;;;;;;5085072;28;20032;-78
2024/03/12 12:50:29;;;;;;;7.43;4.95;;;6.70;1.00;;;;;;5078926;27;20492;-80
2024/03/12 12:53:19;;;;;;;9.93;5.35;;;6.80;1.00;;;;;;5090768;28;20040;-81
2024/03/12 12:56:12;;;;;;;12.07;6.88;;;6.90;1.00;;;;;;5097806;27;20040;-80
2024/03/12 12:59:13;;;;;;;10.98;6.20;;;7.00;1.00;;;;;;5097661;28;20427;-80
2024/03/12 13:02:18;;;;;;;9.13;5.50;;;7.20;1.00;;;;;;5109529;27;20051;-78
2024/03/12 13:05:06;;;;;;;8.52;4.90;;;7.30;1.00;;;;;;5100135;27;20057;-80
2024/03/12 13:08:17;;;;;;;11.77;7.18;;;7.70;1.00;;;;;;5103871;28;20324;-80
2024/03/12 13:11:08;;;;;;;11.60;6.85;;;8.10;99.90;;;;;;5091784;27;20036;-79
2024/03/12 13:14:19;;;;;;;11.25;7.15;;;8.60;99.90;;;;;;5095729;28;20036;-80
2024/03/12 13:17:08;;;;;;;11.25;7.18;;;10.20;99.90;;;;;;5104724;28;20039;-79
2024/03/12 13:19:56;;;;;;;10.52;6.18;;;11.80;99.90;;;;;;5101456;28;20040;-80
2024/03/12 13:22:44;;;;;;;11.00;6.88;;;12.60;1.00;;;;;;5097109;28;20505;-79
2024/03/12 13:25:31;;;;;;;12.82;8.15;;;12.90;1.00;;;;;;5096661;28;20464;-79
2024/03/12 13:28:22;;;;;;;18.00;9.05;;;12.60;99.90;;;;;;5098910;28;20044;-80
2024/03/12 13:31:11;;;;;;;31.67;19.77;;;11.90;99.90;;;;;;5087679;28;21088;-82
2024/03/12 13:34:10;;;;;;;20.55;13.02;;;11.60;99.90;;;;;;5091989;28;20210;-79
2024/03/12 13:37:12;;;;;;;21.90;12.32;;;10.70;99.90;;;;;;5095606;27;20140;-79
2024/03/12 13:40:00;;;;;;;21.30;12.23;;;9.90;99.90;;;;;;5093490;27;20044;-77
2024/03/12 13:43:04;;;;;;;28.40;15.80;;;9.60;99.90;;;;;;5093080;28;20043;-77
2024/03/12 13:45:57;;;;;;;27.08;15.50;;;9.50;99.90;;;;;;5104768;28;20051;-78
2024/03/12 13:48:46;;;;;;;28.13;14.57;;;9.70;99.90;;;;;;5096870;28;20047;-81
2024/03/12 13:51:37;;;;;;;26.60;14.90;;;9.80;99.90;;;;;;5094363;27;20421;-81
2024/03/12 13:54:27;;;;;;;27.85;14.95;;;9.80;99.90;;;;;;5102605;28;20096;-79
2024/03/12 13:57:14;;;;;;;27.38;15.27;;;9.70;99.90;;;;;;5098611;28;20057;-78
2024/03/12 14:00:08;;;;;;;30.55;16.08;;;9.70;99.90;;;;;;5103075;28;20040;-79
2024/03/12 14:02:55;;;;;;;34.30;16.88;;;9.50;99.90;;;;;;5101405;28;20055;-80
2024/03/12 14:05:46;;;;;;;30.90;17.67;;;9.40;99.90;;;;;;5097206;28;20059;-78
2024/03/12 14:08:34;;;;;;;36.47;17.73;;;9.30;99.90;;;;;;5095998;28;20138;-80
2024/03/12 14:11:32;;;;;;;32.67;18.00;;;8.90;99.90;;;;;;5091387;28;20047;-80
2024/03/12 14:14:21;;;;;;;35.85;17.90;;;8.60;99.90;;;;;;5099280;28;20035;-79
2024/03/12 14:17:12;;;;;;;36.08;18.50;;;8.50;99.90;;;;;;5091497;28;20075;-78
2024/03/12 14:20:05;;;;;;;37.40;18.55;;;8.40;99.90;;;;;;5088960;28;20047;-78
2024/03/12 14:22:56;;;;;;;32.85;17.38;;;8.50;99.90;;;;;;5098071;27;20039;-80
2024/03/12 14:25:46;;;;;;;34.65;18.00;;;8.50;99.90;;;;;;5087524;27;20051;-78
2024/03/12 14:28:36;;;;;;;39.22;19.45;;;8.50;99.90;;;;;;5112308;27;20255;-79
2024/03/12 14:31:24;;;;;;;32.83;17.10;;;8.50;99.90;;;;;;5105393;27;20065;-80
2024/03/12 14:34:12;;;;;;;38.10;19.73;;;8.70;99.90;;;;;;5098962;27;20169;-78
2024/03/12 14:37:00;;;;;;;32.10;18.17;;;8.90;99.90;;;;;;5120141;27;20054;-78
2024/03/12 14:39:53;;;;;;;31.50;17.50;;;8.90;99.90;;;;;;5125579;27;20044;-79
2024/03/12 14:42:44;;;;;;;31.35;17.08;;;9.10;99.90;;;;;;5090955;27;20043;-79
2024/03/12 14:45:38;;;;;;;37.50;18.55;;;9.20;99.90;;;;;;5103832;28;20044;-78
2024/03/12 14:48:31;;;;;;;32.47;17.35;;;9.10;99.90;;;;;;5109468;27;20048;-78
2024/03/12 14:51:19;;;;;;;34.15;17.83;;;9.20;99.90;;;;;;5110940;27;20126;-78
2024/03/12 14:54:07;;;;;;;35.22;17.85;;;9.20;99.90;;;;;;5105861;27;20054;-80
2024/03/12 14:56:55;;;;;;;32.63;17.00;;;9.00;99.90;;;;;;5108410;27;20042;-77
2024/03/12 14:59:45;;;;;;;35.60;18.48;;;9.10;99.90;;;;;;5089470;28;20055;-79
2024/03/12 15:02:32;;;;;;;33.45;18.63;;;9.30;99.90;;;;;;5108454;27;20113;-81
2024/03/12 15:05:23;;;;;;;30.50;17.73;;;9.10;99.90;;;;;;5109120;27;20533;-80
2024/03/12 15:08:14;;;;;;;32.45;17.80;;;8.80;99.90;;;;;;5112689;27;20034;-78